Time;durP1;ratioP1;P1;durP2;ratioP2;P2;SDS_P1;SDS_P2;PMS_P1;PMS_P2;Temp;Humidity;BMP_temperature;BMP_pressure;BME280_temperature;BME280_humidity;BME280_pressure;Samples;Min_cycle;Max_cycle;Signal;HPM_P1;HPM_P2
2022/08/07 00:01:22;;;;;;;4.37;3.27;;;16.10;1.00;;;;;;6271264;28;20680;-53
2022/08/07 00:04:45;;;;;;;2.70;2.70;;;16.10;1.00;;;;;;6281431;28;20242;-53
2022/08/07 00:07:49;;;;;;;3.00;2.80;;;16.10;1.00;;;;;;6286986;28;20225;-53
2022/08/07 00:11:02;;;;;;;2.90;2.90;;;16.10;1.00;;;;;;6286091;28;20233;-53
2022/08/07 00:14:08;;;;;;;2.60;2.60;;;16.00;1.00;;;;;;6279809;28;20644;-55
2022/08/07 00:17:14;;;;;;;2.77;2.77;;;16.00;1.00;;;;;;6261600;28;20440;-52
2022/08/07 00:20:18;;;;;;;3.03;2.90;;;16.00;1.00;;;;;;6282582;28;20812;-53
2022/08/07 00:23:38;;;;;;;3.13;3.03;;;16.00;1.00;;;;;;6282326;28;20238;-53
2022/08/07 00:26:42;;;;;;;3.10;3.00;;;16.00;1.00;;;;;;6278574;28;20241;-52
2022/08/07 00:30:05;;;;;;;3.03;2.93;;;15.90;1.00;;;;;;6285453;28;20664;-55
2022/08/07 00:33:29;;;;;;;3.47;3.37;;;15.90;1.00;;;;;;6283180;28;20233;-53
2022/08/07 00:36:34;;;;;;;3.90;3.60;;;15.90;1.00;;;;;;6274997;28;20308;-53
2022/08/07 00:39:40;;;;;;;3.83;3.53;;;15.80;1.00;;;;;;6285898;28;20242;-53
2022/08/07 00:42:56;;;;;;;3.97;3.67;;;15.80;1.00;;;;;;6261211;28;20234;-53
2022/08/07 00:46:01;;;;;;;3.20;3.10;;;15.80;1.00;;;;;;6261105;28;20234;-52
2022/08/07 00:49:05;;;;;;;3.57;3.37;;;15.80;1.00;;;;;;6260648;28;20245;-54
2022/08/07 00:52:10;;;;;;;3.47;3.27;;;15.80;1.00;;;;;;6261640;28;20233;-54
2022/08/07 00:55:13;;;;;;;3.53;3.33;;;15.80;1.00;;;;;;6283590;28;20373;-57
2022/08/07 00:58:27;;;;;;;3.20;3.10;;;15.80;1.00;;;;;;6268233;28;20633;-54
2022/08/07 01:01:30;;;;;;;3.23;3.13;;;15.80;1.00;;;;;;6284333;28;20813;-54
2022/08/07 01:04:48;;;;;;;3.57;3.47;;;15.80;1.00;;;;;;6284473;28;20324;-57
2022/08/07 01:07:51;;;;;;;3.53;3.33;;;15.70;1.00;;;;;;6260187;28;20943;-53
2022/08/07 01:10:54;;;;;;;3.37;3.27;;;15.70;1.00;;;;;;6260083;28;20588;-53
2022/08/07 01:14:00;;;;;;;3.10;3.10;;;15.70;1.00;;;;;;6260690;28;20234;-52
2022/08/07 01:17:04;;;;;;;3.20;3.10;;;15.70;1.00;;;;;;6259841;28;20230;-53
2022/08/07 01:20:12;;;;;;;3.03;3.03;;;15.60;1.00;;;;;;6260369;28;20421;-53
2022/08/07 01:23:20;;;;;;;3.70;3.60;;;15.60;1.00;;;;;;6268050;28;20608;-54
2022/08/07 01:26:41;;;;;;;3.60;3.50;;;15.60;1.00;;;;;;6240767;28;20229;-56
2022/08/07 01:29:53;;;;;;;3.07;2.97;;;15.50;1.00;;;;;;6284557;28;20237;-53
2022/08/07 01:32:56;;;;;;;3.50;3.40;;;15.50;1.00;;;;;;6284983;28;20314;-53
2022/08/07 01:36:01;;;;;;;3.50;3.40;;;15.50;1.00;;;;;;6280974;28;20381;-54
2022/08/07 01:39:10;;;;;;;3.53;3.33;;;15.40;1.00;;;;;;6278944;28;20245;-54
2022/08/07 01:42:16;;;;;;;3.20;3.10;;;15.40;1.00;;;;;;6284755;28;20237;-54
2022/08/07 01:45:39;;;;;;;3.80;3.60;;;15.30;1.00;;;;;;6274022;28;20245;-53
2022/08/07 01:48:49;;;;;;;4.27;3.87;;;15.40;1.00;;;;;;6259092;28;20667;-53
2022/08/07 01:51:53;;;;;;;3.83;3.53;;;15.30;1.00;;;;;;6259493;28;20242;-54
2022/08/07 01:55:10;;;;;;;3.80;3.63;;;15.40;1.00;;;;;;6278744;28;20232;-53
2022/08/07 01:58:32;;;;;;;3.30;3.30;;;15.40;1.00;;;;;;6283928;28;20393;-53
2022/08/07 02:01:43;;;;;;;3.40;3.30;;;15.40;1.00;;;;;;6282874;28;20221;-54
2022/08/07 02:05:08;;;;;;;3.67;3.47;;;15.40;1.00;;;;;;6281676;28;20717;-54
2022/08/07 02:08:34;;;;;;;4.30;3.97;;;15.40;1.00;;;;;;6283091;28;20614;-53
2022/08/07 02:11:44;;;;;;;4.23;4.03;;;15.30;1.00;;;;;;6282088;28;20236;-55
2022/08/07 02:15:08;;;;;;;4.00;3.90;;;15.30;1.00;;;;;;6278987;28;20608;-53
2022/08/07 02:18:13;;;;;;;4.00;3.80;;;15.30;1.00;;;;;;6282942;28;20317;-54
2022/08/07 02:21:20;;;;;;;3.87;3.77;;;15.30;1.00;;;;;;6281484;28;20287;-54
2022/08/07 02:24:24;;;;;;;3.30;3.20;;;15.20;1.00;;;;;;6265942;28;20773;-53
2022/08/07 02:27:33;;;;;;;3.60;3.50;;;15.20;1.00;;;;;;6283143;28;20641;-53
2022/08/07 02:30:38;;;;;;;3.80;3.57;;;15.20;1.00;;;;;;6269904;28;20293;-53
2022/08/07 02:33:42;;;;;;;3.73;3.63;;;15.10;1.00;;;;;;6282446;28;20237;-54
2022/08/07 02:37:07;;;;;;;3.27;3.20;;;15.20;1.00;;;;;;6283148;28;20734;-53
2022/08/07 02:40:11;;;;;;;3.70;3.60;;;15.10;1.00;;;;;;6269215;28;20632;-53
2022/08/07 02:43:38;;;;;;;3.70;3.50;;;15.10;1.00;;;;;;6259250;28;20241;-54
2022/08/07 02:46:42;;;;;;;3.53;3.43;;;15.00;1.00;;;;;;6275390;28;20704;-56
2022/08/07 02:49:53;;;;;;;3.50;3.40;;;15.00;1.00;;;;;;6258871;28;20230;-53
2022/08/07 02:53:05;;;;;;;3.57;3.47;;;15.00;1.00;;;;;;6263865;28;20222;-53
2022/08/07 02:56:18;;;;;;;4.00;3.80;;;14.90;1.00;;;;;;6278135;28;20398;-54
2022/08/07 02:59:28;;;;;;;4.43;4.13;;;14.90;1.00;;;;;;6276401;28;20356;-54
2022/08/07 03:02:32;;;;;;;4.67;4.37;;;14.90;1.00;;;;;;6291223;28;20329;-55
2022/08/07 03:05:37;;;;;;;4.13;3.93;;;14.90;1.00;;;;;;6282159;28;20252;-53
2022/08/07 03:08:42;;;;;;;4.30;4.10;;;14.90;1.00;;;;;;6283823;28;20398;-54
2022/08/07 03:11:46;;;;;;;4.17;3.87;;;14.90;1.00;;;;;;6282565;28;20249;-53
2022/08/07 03:15:02;;;;;;;3.93;3.73;;;14.80;1.00;;;;;;6261479;28;20242;-52
2022/08/07 03:18:10;;;;;;;4.00;3.90;;;14.80;1.00;;;;;;6258807;28;20317;-53
2022/08/07 03:21:19;;;;;;;3.87;3.77;;;14.80;1.00;;;;;;6263424;28;20607;-53
2022/08/07 03:24:24;;;;;;;4.30;4.10;;;14.80;1.00;;;;;;6278857;28;20326;-53
2022/08/07 03:27:30;;;;;;;3.87;3.77;;;14.80;1.00;;;;;;6287321;28;20686;-53
2022/08/07 03:34:42;;;;;;;4.67;4.43;;;14.70;1.00;;;;;;6285525;28;20716;-54
2022/08/07 03:37:53;;;;;;;4.00;3.90;;;14.70;1.00;;;;;;6281655;28;20231;-53
2022/08/07 03:40:59;;;;;;;4.50;3.70;;;14.60;1.00;;;;;;6286513;28;20744;-53
2022/08/07 03:44:03;;;;;;;4.13;3.93;;;14.60;1.00;;;;;;6287539;28;20320;-53
2022/08/07 03:47:08;;;;;;;3.57;3.47;;;14.60;1.00;;;;;;6287538;28;20601;-54
2022/08/07 03:50:18;;;;;;;3.83;3.73;;;14.50;1.00;;;;;;6281411;28;20234;-54
2022/08/07 03:53:25;;;;;;;3.97;3.80;;;14.60;1.00;;;;;;6288114;28;20415;-53
2022/08/07 03:56:50;;;;;;;4.13;4.03;;;14.50;1.00;;;;;;6286936;28;20620;-53
2022/08/07 04:00:10;;;;;;;3.60;3.50;;;14.50;1.00;;;;;;6284235;28;20221;-53
2022/08/07 04:03:15;;;;;;;4.17;3.87;;;14.50;1.00;;;;;;6283534;28;20370;-54
2022/08/07 04:06:19;;;;;;;3.87;3.67;;;14.50;1.00;;;;;;6281591;28;20281;-53
2022/08/07 04:09:40;;;;;;;4.10;3.93;;;14.50;1.00;;;;;;6282941;28;20240;-52
2022/08/07 04:12:52;;;;;;;4.10;3.90;;;14.60;1.00;;;;;;6286516;28;20567;-54
2022/08/07 04:15:57;;;;;;;3.67;3.47;;;14.60;1.00;;;;;;6286292;28;20758;-54
2022/08/07 04:19:04;;;;;;;3.80;3.70;;;14.60;1.00;;;;;;6282295;28;20444;-54
2022/08/07 04:22:18;;;;;;;3.50;3.40;;;14.60;1.00;;;;;;6284574;28;20311;-51
2022/08/07 04:25:25;;;;;;;3.87;3.77;;;14.60;1.00;;;;;;6284396;28;20229;-54
2022/08/07 04:28:31;;;;;;;4.03;3.73;;;14.70;1.00;;;;;;6285460;28;20316;-58
2022/08/07 04:31:34;;;;;;;4.00;3.87;;;14.70;1.00;;;;;;6280051;28;20229;-55
2022/08/07 04:34:58;;;;;;;4.03;3.80;;;14.80;1.00;;;;;;6278598;28;20238;-53
2022/08/07 04:38:05;;;;;;;3.93;3.73;;;14.80;1.00;;;;;;6283626;28;20229;-53
2022/08/07 04:41:09;;;;;;;4.00;3.80;;;14.90;1.00;;;;;;6282064;28;20229;-52
2022/08/07 04:44:21;;;;;;;4.10;4.00;;;14.90;1.00;;;;;;6285626;28;20229;-54
2022/08/07 04:47:35;;;;;;;3.77;3.67;;;15.00;1.00;;;;;;6281043;28;20249;-54
2022/08/07 04:51:07;;;;;;;4.03;3.90;;;15.00;1.00;;;;;;6279731;28;20245;-53
2022/08/07 04:54:19;;;;;;;4.17;3.97;;;15.10;1.00;;;;;;6284631;28;20239;-53
2022/08/07 04:57:41;;;;;;;4.30;4.10;;;15.20;1.00;;;;;;6284904;28;20252;-54
2022/08/07 05:01:13;;;;;;;4.47;4.17;;;15.30;1.00;;;;;;6284295;28;20769;-54
2022/08/07 05:04:31;;;;;;;4.10;3.70;;;15.50;1.00;;;;;;6284917;28;20663;-55
2022/08/07 05:07:47;;;;;;;6.50;4.43;;;15.60;1.00;;;;;;6284705;28;20241;-54
2022/08/07 05:11:01;;;;;;;4.17;3.97;;;15.80;1.00;;;;;;6278742;28;20607;-54
2022/08/07 05:14:11;;;;;;;3.90;3.70;;;15.90;1.00;;;;;;6285209;28;20241;-53
2022/08/07 05:17:35;;;;;;;4.23;4.00;;;16.10;1.00;;;;;;6281448;28;20241;-54
2022/08/07 05:21:00;;;;;;;4.10;3.87;;;16.40;1.00;;;;;;6282711;28;20230;-53
2022/08/07 05:24:12;;;;;;;3.77;3.33;;;16.50;1.00;;;;;;6284990;28;20703;-54
2022/08/07 05:27:17;;;;;;;3.93;3.67;;;16.80;1.00;;;;;;6281031;28;20321;-54
2022/08/07 05:30:42;;;;;;;3.87;3.57;;;17.10;1.00;;;;;;6280507;28;20241;-53
2022/08/07 05:33:50;;;;;;;3.13;3.03;;;17.20;1.00;;;;;;6284881;28;20265;-54
2022/08/07 05:37:08;;;;;;;3.50;3.30;;;17.40;1.00;;;;;;6282757;28;20587;-53
2022/08/07 05:40:13;;;;;;;3.87;3.63;;;17.70;1.00;;;;;;6283961;28;20365;-54
2022/08/07 05:43:21;;;;;;;4.53;3.63;;;18.00;1.00;;;;;;6282981;28;20311;-52
2022/08/07 05:46:48;;;;;;;3.93;3.37;;;18.20;1.00;;;;;;6272511;28;20634;-53
2022/08/07 05:49:54;;;;;;;2.87;2.87;;;18.50;1.00;;;;;;6284100;28;20225;-54
2022/08/07 05:52:57;;;;;;;3.10;3.00;;;18.80;1.00;;;;;;6284964;28;20322;-53
2022/08/07 05:56:02;;;;;;;2.87;2.77;;;19.20;1.00;;;;;;6279325;28;20239;-54
2022/08/07 05:59:13;;;;;;;2.90;2.70;;;19.40;1.00;;;;;;6283711;28;20244;-54
2022/08/07 06:02:19;;;;;;;3.20;2.90;;;19.70;1.00;;;;;;6284212;28;20229;-54
2022/08/07 06:05:31;;;;;;;2.83;2.73;;;19.90;1.00;;;;;;6280143;28;20728;-52
2022/08/07 06:08:34;;;;;;;3.00;2.80;;;20.10;1.00;;;;;;6284162;28;20735;-53
2022/08/07 06:11:46;;;;;;;2.47;2.37;;;20.20;1.00;;;;;;6276194;28;20234;-53
2022/08/07 06:14:49;;;;;;;2.80;2.70;;;20.40;1.00;;;;;;6276961;28;20304;-53
2022/08/07 06:17:52;;;;;;;2.73;2.60;;;20.60;1.00;;;;;;6276617;28;20367;-52
2022/08/07 06:20:59;;;;;;;3.10;2.90;;;20.90;1.00;;;;;;6283022;28;20229;-53
2022/08/07 06:24:22;;;;;;;3.37;3.07;;;21.00;1.00;;;;;;6281760;28;20244;-55
2022/08/07 06:27:46;;;;;;;4.13;3.20;;;21.30;1.00;;;;;;6276615;28;20240;-54
2022/08/07 06:31:04;;;;;;;3.37;3.17;;;21.60;1.00;;;;;;6277731;28;20233;-54
2022/08/07 06:34:07;;;;;;;3.43;3.23;;;21.70;1.00;;;;;;6283475;28;20233;-53
2022/08/07 06:37:11;;;;;;;4.93;3.50;;;21.80;1.00;;;;;;6283159;28;20222;-54
2022/08/07 06:40:39;;;;;;;3.07;2.87;;;21.80;1.00;;;;;;6279543;28;20363;-55
2022/08/07 06:43:50;;;;;;;3.07;2.97;;;22.00;1.00;;;;;;6278937;28;20252;-54
2022/08/07 06:47:04;;;;;;;2.90;2.70;;;22.10;1.00;;;;;;6283052;28;20233;-53
2022/08/07 06:50:14;;;;;;;3.03;2.70;;;22.20;1.00;;;;;;6283701;28;20372;-53
2022/08/07 06:53:21;;;;;;;3.00;3.00;;;22.30;1.00;;;;;;6282821;28;20717;-53
2022/08/07 06:56:46;;;;;;;2.73;2.63;;;22.50;1.00;;;;;;6275086;28;20233;-55
2022/08/07 06:59:55;;;;;;;2.97;2.83;;;22.70;1.00;;;;;;6276238;28;20248;-53
2022/08/07 07:03:18;;;;;;;3.70;2.90;;;22.70;1.00;;;;;;6282876;28;20248;-53
2022/08/07 07:06:43;;;;;;;2.97;2.77;;;22.80;1.00;;;;;;6274409;28;20245;-56
2022/08/07 07:10:02;;;;;;;2.73;2.63;;;22.70;1.00;;;;;;6276911;28;20229;-54
2022/08/07 07:13:12;;;;;;;2.47;2.37;;;22.60;1.00;;;;;;6282874;28;20289;-54
2022/08/07 07:16:20;;;;;;;2.30;2.20;;;22.50;1.00;;;;;;6280550;28;20272;-55
2022/08/07 07:19:32;;;;;;;2.87;2.77;;;22.50;1.00;;;;;;6282879;28;20706;-55
2022/08/07 07:22:56;;;;;;;3.07;2.60;;;22.50;1.00;;;;;;6276734;28;20228;-54
2022/08/07 07:26:20;;;;;;;2.40;2.40;;;22.60;1.00;;;;;;6277361;28;20243;-53
2022/08/07 07:29:43;;;;;;;2.43;2.20;;;22.70;1.00;;;;;;6281103;28;20244;-54
2022/08/07 07:33:10;;;;;;;2.70;2.50;;;22.70;1.00;;;;;;6274688;28;20225;-52
2022/08/07 07:36:14;;;;;;;3.00;2.80;;;22.50;1.00;;;;;;6283357;28;20616;-52
2022/08/07 07:39:21;;;;;;;2.37;2.27;;;22.60;1.00;;;;;;6270831;28;20239;-54
2022/08/07 07:42:27;;;;;;;2.83;2.73;;;22.40;1.00;;;;;;6279707;28;20606;-54
2022/08/07 07:45:37;;;;;;;2.67;2.53;;;22.20;1.00;;;;;;6281642;28;20316;-55
2022/08/07 07:49:03;;;;;;;2.27;2.27;;;22.00;1.00;;;;;;6278267;28;20684;-53
2022/08/07 07:52:26;;;;;;;4.40;2.40;;;21.90;1.00;;;;;;6281885;28;20248;-54
2022/08/07 07:55:31;;;;;;;2.60;2.40;;;21.70;1.00;;;;;;6281939;28;20241;-54
2022/08/07 07:58:49;;;;;;;2.67;2.57;;;21.80;1.00;;;;;;6275673;28;20801;-54
2022/08/07 08:01:56;;;;;;;2.57;2.37;;;21.70;1.00;;;;;;6281260;28;20237;-53
2022/08/07 08:05:10;;;;;;;2.50;2.40;;;21.60;1.00;;;;;;6282836;28;20401;-53
2022/08/07 08:08:18;;;;;;;2.97;2.67;;;21.60;1.00;;;;;;6283304;28;20245;-54
2022/08/07 08:11:38;;;;;;;2.17;2.17;;;21.70;1.00;;;;;;6286262;28;20237;-54
2022/08/07 08:15:01;;;;;;;2.40;2.20;;;21.70;1.00;;;;;;6279303;28;20229;-55
2022/08/07 08:18:10;;;;;;;2.50;2.30;;;21.80;1.00;;;;;;6285846;28;20260;-55
2022/08/07 08:28:46;;;;;;;2.80;2.60;;;21.60;1.00;;;;;;6278122;28;20495;-54
2022/08/07 08:31:50;;;;;;;2.80;2.57;;;21.60;1.00;;;;;;6283942;28;20294;-53
2022/08/07 08:35:18;;;;;;;3.60;2.30;;;21.60;1.00;;;;;;6282700;28;20249;-54
2022/08/07 08:38:32;;;;;;;2.50;2.33;;;21.60;1.00;;;;;;6283204;28;20261;-54
2022/08/07 08:41:48;;;;;;;5.13;2.60;;;21.80;1.00;;;;;;6278799;28;20241;-54
2022/08/07 08:45:10;;;;;;;4.00;2.87;;;22.00;1.00;;;;;;6277666;28;21896;-54
2022/08/07 08:48:25;;;;;;;2.83;2.73;;;22.00;1.00;;;;;;6285660;28;20233;-53
2022/08/07 08:51:41;;;;;;;3.53;2.57;;;21.90;1.00;;;;;;6285154;28;20741;-54
2022/08/07 08:55:13;;;;;;;2.73;2.63;;;22.00;1.00;;;;;;6282870;28;20238;-55
2022/08/07 08:58:48;;;;;;;3.23;2.20;;;22.20;1.00;;;;;;6280088;28;20279;-54
2022/08/07 09:02:02;;;;;;;3.17;2.13;;;22.30;1.00;;;;;;6278487;28;20243;-54
2022/08/07 09:05:23;;;;;;;3.17;2.40;;;22.50;1.00;;;;;;6280793;28;20752;-54
2022/08/07 09:08:45;;;;;;;2.37;2.20;;;22.70;1.00;;;;;;6281320;28;20248;-53
2022/08/07 09:12:00;;;;;;;2.53;2.33;;;22.90;1.00;;;;;;6273403;28;20468;-54
2022/08/07 09:15:34;;;;;;;2.60;2.40;;;23.00;1.00;;;;;;6284999;28;20237;-54
2022/08/07 09:19:10;;;;;;;2.67;2.17;;;22.90;1.00;;;;;;6280078;28;20233;-54
2022/08/07 09:22:52;;;;;;;4.27;2.27;;;22.90;1.00;;;;;;6283878;28;20620;-52
2022/08/07 09:26:22;;;;;;;2.60;2.50;;;22.80;1.00;;;;;;6278813;28;20627;-54
2022/08/07 09:29:37;;;;;;;3.50;2.83;;;22.80;1.00;;;;;;6278761;28;20253;-54
2022/08/07 09:33:12;;;;;;;2.50;2.50;;;22.70;1.00;;;;;;6275288;28;20229;-54
2022/08/07 09:36:40;;;;;;;2.60;2.40;;;22.50;1.00;;;;;;6285347;28;20237;-53
2022/08/07 09:39:49;;;;;;;3.17;2.30;;;22.60;1.00;;;;;;6280734;28;20237;-53
2022/08/07 09:43:12;;;;;;;2.20;2.20;;;22.70;1.00;;;;;;6285184;28;20230;-54
2022/08/07 09:46:35;;;;;;;2.37;2.17;;;22.80;1.00;;;;;;6283810;28;20299;-53
2022/08/07 09:50:08;;;;;;;2.30;2.30;;;22.70;1.00;;;;;;6277427;28;20245;-55
2022/08/07 09:53:24;;;;;;;2.30;2.10;;;22.80;1.00;;;;;;6283951;28;20229;-54
2022/08/07 09:56:58;;;;;;;2.83;2.27;;;23.00;1.00;;;;;;6280657;28;20244;-57
2022/08/07 10:00:07;;;;;;;2.33;2.23;;;23.10;1.00;;;;;;6283220;28;20229;-55
2022/08/07 10:03:48;;;;;;;2.63;2.43;;;23.40;1.00;;;;;;6283859;28;20234;-54
2022/08/07 10:07:25;;;;;;;2.30;2.30;;;23.70;1.00;;;;;;6279295;28;20739;-55
2022/08/07 10:10:51;;;;;;;2.53;2.23;;;24.00;1.00;;;;;;6283332;28;20244;-56
2022/08/07 10:14:28;;;;;;;2.67;2.57;;;24.00;1.00;;;;;;6278998;28;20229;-54
2022/08/07 10:18:07;;;;;;;2.27;2.17;;;23.90;1.00;;;;;;6281295;28;20623;-54
2022/08/07 10:21:23;;;;;;;2.90;2.70;;;23.80;1.00;;;;;;6283354;28;20443;-54
2022/08/07 10:24:56;;;;;;;2.50;2.30;;;23.70;1.00;;;;;;6275801;28;20241;-54
2022/08/07 10:28:24;;;;;;;2.53;2.43;;;23.80;1.00;;;;;;6283138;28;20698;-53
2022/08/07 10:31:43;;;;;;;2.27;2.17;;;24.00;1.00;;;;;;6283422;28;20225;-53
2022/08/07 10:35:04;;;;;;;2.63;2.07;;;24.10;1.00;;;;;;6281132;28;20236;-53
2022/08/07 10:38:39;;;;;;;2.50;2.30;;;24.30;1.00;;;;;;6282401;28;20449;-53
2022/08/07 10:41:57;;;;;;;2.10;2.10;;;24.30;1.00;;;;;;6271582;28;20698;-54
2022/08/07 10:45:26;;;;;;;2.10;2.10;;;24.20;1.00;;;;;;6279225;28;20238;-54
2022/08/07 10:48:57;;;;;;;2.10;2.10;;;24.50;1.00;;;;;;6273648;28;20302;-55
2022/08/07 10:52:08;;;;;;;2.33;2.13;;;24.70;1.00;;;;;;6277152;28;20312;-55
2022/08/07 10:55:21;;;;;;;2.70;2.53;;;25.00;1.00;;;;;;6282999;28;20225;-52
2022/08/07 10:58:56;;;;;;;2.70;2.50;;;24.90;1.00;;;;;;6273980;28;20251;-54
2022/08/07 11:02:05;;;;;;;2.70;2.50;;;24.70;1.00;;;;;;6283449;28;20319;-55
2022/08/07 11:05:32;;;;;;;1.80;1.80;;;24.60;1.00;;;;;;6280534;28;20237;-54
2022/08/07 11:08:58;;;;;;;2.20;2.10;;;24.60;1.00;;;;;;6270254;28;20406;-54
2022/08/07 11:12:11;;;;;;;2.53;2.43;;;24.50;1.00;;;;;;6283116;28;20237;-56
2022/08/07 11:15:20;;;;;;;1.90;1.90;;;24.50;1.00;;;;;;6281193;28;20713;-53
2022/08/07 11:18:38;;;;;;;2.30;2.20;;;24.40;1.00;;;;;;6283299;28;20300;-56
2022/08/07 11:21:50;;;;;;;2.20;2.20;;;24.70;1.00;;;;;;6283416;28;20729;-56
2022/08/07 11:25:01;;;;;;;2.40;2.30;;;24.70;1.00;;;;;;6279251;28;20716;-54
2022/08/07 11:28:15;;;;;;;2.30;2.20;;;24.50;1.00;;;;;;6278051;28;20226;-55
2022/08/07 11:31:26;;;;;;;2.30;2.30;;;24.30;1.00;;;;;;6280721;28;20321;-54
2022/08/07 11:34:36;;;;;;;2.40;2.30;;;24.20;1.00;;;;;;6281565;28;20237;-55
2022/08/07 11:38:07;;;;;;;2.40;2.30;;;24.10;1.00;;;;;;6277226;28;20237;-54
2022/08/07 11:41:23;;;;;;;2.30;2.20;;;24.00;1.00;;;;;;6285487;28;20226;-56
2022/08/07 11:44:54;;;;;;;2.37;2.23;;;24.00;1.00;;;;;;6286702;28;20242;-55
2022/08/07 11:48:19;;;;;;;4.33;2.43;;;24.00;1.00;;;;;;6287552;28;20387;-54
2022/08/07 11:51:50;;;;;;;4.50;2.30;;;24.00;1.00;;;;;;6287122;28;20795;-55
2022/08/07 11:55:04;;;;;;;1.93;1.93;;;24.10;1.00;;;;;;6285858;28;20520;-54
2022/08/07 11:58:29;;;;;;;2.30;2.30;;;23.90;1.00;;;;;;6283733;28;20233;-54
2022/08/07 12:01:48;;;;;;;2.37;2.20;;;23.80;1.00;;;;;;6277337;28;20397;-55
2022/08/07 12:05:10;;;;;;;2.83;2.57;;;23.80;1.00;;;;;;6285476;28;20383;-54
2022/08/07 12:08:34;;;;;;;2.50;2.30;;;23.70;1.00;;;;;;6283463;28;20229;-53
2022/08/07 12:11:46;;;;;;;2.67;2.30;;;23.80;1.00;;;;;;6286109;28;20953;-53
2022/08/07 12:15:15;;;;;;;1.83;1.83;;;23.70;1.00;;;;;;6286269;28;20226;-55
2022/08/07 12:18:46;;;;;;;2.13;2.03;;;23.70;1.00;;;;;;6280823;28;20240;-54
2022/08/07 12:21:58;;;;;;;2.30;2.30;;;23.70;1.00;;;;;;6280012;28;20370;-55
2022/08/07 12:29:15;;;;;;;2.17;2.10;;;24.20;1.00;;;;;;6280952;28;20241;-54
2022/08/07 12:32:29;;;;;;;2.40;2.30;;;24.50;1.00;;;;;;6286457;28;20440;-56
2022/08/07 12:35:35;;;;;;;2.63;2.47;;;24.70;1.00;;;;;;6283853;28;20755;-54
2022/08/07 12:38:39;;;;;;;2.37;2.17;;;24.90;1.00;;;;;;6286090;28;20379;-55
2022/08/07 12:41:50;;;;;;;2.10;1.90;;;25.00;1.00;;;;;;6284866;28;20364;-52
2022/08/07 12:44:56;;;;;;;2.30;2.30;;;25.20;1.00;;;;;;6284779;28;20617;-53
2022/08/07 12:48:04;;;;;;;2.20;2.20;;;25.50;1.00;;;;;;6285972;28;20308;-53
2022/08/07 12:51:36;;;;;;;2.23;2.20;;;25.60;1.00;;;;;;6285405;28;20241;-54
2022/08/07 12:55:04;;;;;;;2.73;1.90;;;25.80;1.00;;;;;;6277538;28;20609;-54
2022/08/07 12:58:15;;;;;;;2.30;2.30;;;26.10;1.00;;;;;;6279919;28;20283;-54
2022/08/07 13:01:30;;;;;;;2.20;2.20;;;26.30;1.00;;;;;;6285639;28;20271;-54
2022/08/07 13:04:51;;;;;;;2.77;2.20;;;26.40;1.00;;;;;;6282546;28;20313;-52
2022/08/07 13:08:30;;;;;;;2.43;2.33;;;26.60;1.00;;;;;;6283905;28;20250;-54
2022/08/07 13:11:47;;;;;;;2.20;2.10;;;26.50;1.00;;;;;;6283611;28;20241;-53
2022/08/07 13:15:18;;;;;;;2.67;2.40;;;26.40;1.00;;;;;;6280651;28;20297;-52
2022/08/07 13:18:41;;;;;;;2.60;2.50;;;26.60;1.00;;;;;;6285913;28;20237;-54
2022/08/07 13:21:52;;;;;;;2.50;2.30;;;26.90;1.00;;;;;;6271032;28;20231;-54
2022/08/07 13:25:25;;;;;;;1.93;1.90;;;27.10;1.00;;;;;;6282928;28;20319;-54
2022/08/07 13:28:39;;;;;;;2.00;2.00;;;27.20;1.00;;;;;;6284123;28;20232;-55
2022/08/07 13:31:48;;;;;;;2.27;2.27;;;27.40;1.00;;;;;;6284189;28;20241;-54
2022/08/07 13:35:05;;;;;;;2.30;2.10;;;27.60;1.00;;;;;;6279710;28;20631;-54
2022/08/07 13:38:17;;;;;;;2.13;2.03;;;27.70;1.00;;;;;;6285937;28;20234;-53
2022/08/07 13:41:32;;;;;;;1.87;1.87;;;27.50;1.00;;;;;;6281370;28;20323;-54
2022/08/07 13:44:38;;;;;;;2.47;2.10;;;27.50;1.00;;;;;;6278110;28;20605;-53
2022/08/07 13:47:44;;;;;;;2.00;1.90;;;27.50;1.00;;;;;;6284096;28;20744;-54
2022/08/07 13:51:08;;;;;;;2.17;2.17;;;27.40;1.00;;;;;;6280107;28;20257;-49
2022/08/07 13:54:32;;;;;;;2.30;2.30;;;27.60;1.00;;;;;;6285277;28;20468;-55
2022/08/07 13:57:40;;;;;;;2.40;2.20;;;27.60;1.00;;;;;;6284715;28;20233;-55
2022/08/07 14:01:11;;;;;;;3.33;2.60;;;27.40;1.00;;;;;;6278312;28;20244;-54
2022/08/07 14:04:17;;;;;;;2.40;2.30;;;27.30;1.00;;;;;;6284196;28;20237;-55
2022/08/07 14:07:27;;;;;;;3.10;2.23;;;27.30;1.00;;;;;;6278332;28;20264;-55
2022/08/07 14:10:35;;;;;;;2.63;2.40;;;27.00;1.00;;;;;;6278389;28;20238;-54
2022/08/07 14:13:54;;;;;;;4.83;2.20;;;26.90;1.00;;;;;;6275725;28;20314;-55
2022/08/07 14:17:00;;;;;;;2.27;2.27;;;26.80;1.00;;;;;;6283166;28;20316;-54
2022/08/07 14:20:27;;;;;;;2.40;2.30;;;26.80;1.00;;;;;;6278186;28;20242;-54
2022/08/07 14:23:50;;;;;;;3.20;2.60;;;26.70;1.00;;;;;;6276821;28;20504;-53
2022/08/07 14:27:08;;;;;;;2.90;2.70;;;26.60;1.00;;;;;;6275030;28;20240;-53
2022/08/07 14:30:32;;;;;;;2.57;2.50;;;26.50;1.00;;;;;;6283821;28;20249;-55
2022/08/07 14:33:36;;;;;;;2.63;2.20;;;26.40;1.00;;;;;;6279516;28;20418;-55
2022/08/07 14:36:48;;;;;;;2.63;2.43;;;26.20;1.00;;;;;;6282406;28;20722;-55
2022/08/07 14:40:14;;;;;;;2.40;2.40;;;26.00;1.00;;;;;;6282180;28;20233;-54
2022/08/07 14:43:32;;;;;;;2.47;2.27;;;25.80;1.00;;;;;;6282158;28;20234;-54
2022/08/07 14:46:58;;;;;;;2.57;2.43;;;25.70;1.00;;;;;;6276734;28;20233;-54
2022/08/07 14:50:19;;;;;;;2.50;2.40;;;25.40;1.00;;;;;;6273682;28;20245;-56
2022/08/07 14:53:25;;;;;;;3.50;3.30;;;25.20;1.00;;;;;;6283318;28;20251;-56
2022/08/07 14:56:50;;;;;;;2.40;2.30;;;25.00;1.00;;;;;;6282873;28;20229;-55
2022/08/07 14:59:55;;;;;;;2.27;2.27;;;24.70;1.00;;;;;;6274345;28;20248;-55
2022/08/07 15:03:10;;;;;;;2.87;2.67;;;24.40;1.00;;;;;;6282586;28;20229;-54
2022/08/07 15:06:25;;;;;;;2.50;2.30;;;24.40;1.00;;;;;;6280975;28;20462;-53
2022/08/07 15:09:31;;;;;;;2.30;2.20;;;24.30;1.00;;;;;;6283240;28;20294;-55
2022/08/07 15:12:58;;;;;;;2.23;2.13;;;24.20;1.00;;;;;;6281808;28;20339;-54
2022/08/07 15:16:07;;;;;;;2.40;2.30;;;24.30;1.00;;;;;;6274173;28;20296;-55
2022/08/07 15:19:18;;;;;;;2.93;2.70;;;24.10;1.00;;;;;;6287793;28;20282;-54
2022/08/07 15:22:46;;;;;;;2.73;2.50;;;24.10;1.00;;;;;;6286786;28;20233;-54
2022/08/07 15:25:58;;;;;;;3.00;2.87;;;24.20;1.00;;;;;;6284297;28;20632;-54
2022/08/07 15:29:02;;;;;;;2.10;2.00;;;24.30;1.00;;;;;;6277120;28;20317;-59
2022/08/07 15:32:26;;;;;;;2.90;2.70;;;24.50;1.00;;;;;;6287157;28;20241;-53
2022/08/07 15:35:48;;;;;;;2.03;2.03;;;24.50;1.00;;;;;;6287442;28;20233;-54
2022/08/07 15:39:11;;;;;;;2.53;2.20;;;24.30;1.00;;;;;;6270431;28;20442;-53
2022/08/07 15:42:46;;;;;;;2.20;2.10;;;24.20;1.00;;;;;;6287460;28;20747;-56
2022/08/07 15:45:56;;;;;;;1.90;1.90;;;24.10;1.00;;;;;;6271824;28;20233;-54
2022/08/07 15:49:13;;;;;;;3.50;2.40;;;24.00;1.00;;;;;;6278030;28;20348;-54
2022/08/07 15:52:24;;;;;;;2.30;2.20;;;24.00;1.00;;;;;;6287377;28;20615;-54
2022/08/07 15:55:35;;;;;;;1.87;1.87;;;24.00;1.00;;;;;;6281726;28;20635;-54
2022/08/07 15:59:00;;;;;;;2.30;2.30;;;24.20;1.00;;;;;;6280208;28;20234;-54
2022/08/07 16:02:04;;;;;;;3.10;2.80;;;24.30;1.00;;;;;;6285962;28;20379;-54
2022/08/07 16:05:11;;;;;;;2.30;2.20;;;24.50;1.00;;;;;;6285399;28;20406;-53
2022/08/07 16:08:22;;;;;;;2.40;2.30;;;24.40;1.00;;;;;;6286519;28;20591;-53
2022/08/07 16:11:54;;;;;;;2.60;2.40;;;24.50;1.00;;;;;;6285940;28;20280;-54
2022/08/07 16:15:07;;;;;;;2.57;2.43;;;24.50;1.00;;;;;;6272605;28;20221;-55
2022/08/07 16:18:44;;;;;;;2.33;2.23;;;24.50;1.00;;;;;;6286337;28;20230;-54
2022/08/07 16:22:04;;;;;;;2.20;2.20;;;24.50;1.00;;;;;;6285063;28;20610;-54
2022/08/07 16:25:47;;;;;;;2.30;2.20;;;24.60;1.00;;;;;;6282626;28;20237;-54
2022/08/07 16:29:10;;;;;;;2.47;2.30;;;24.50;1.00;;;;;;6284635;28;20237;-53
2022/08/07 16:32:38;;;;;;;2.53;2.43;;;24.50;1.00;;;;;;6283425;28;20256;-51
2022/08/07 16:36:18;;;;;;;2.60;2.50;;;24.50;1.00;;;;;;6273899;28;20233;-53
2022/08/07 16:39:54;;;;;;;2.33;2.33;;;24.40;1.00;;;;;;6278967;28;20780;-56
2022/08/07 16:43:10;;;;;;;4.27;2.57;;;24.30;1.00;;;;;;6282087;28;20444;-55
2022/08/07 16:46:57;;;;;;;2.57;2.47;;;24.30;1.00;;;;;;6285791;28;20319;-48
2022/08/07 16:50:30;;;;;;;3.13;2.70;;;24.20;1.00;;;;;;6285644;28;20237;-55
2022/08/07 16:54:26;;;;;;;2.40;2.40;;;24.10;1.00;;;;;;6277726;28;20595;-55
2022/08/07 16:57:44;;;;;;;3.23;2.50;;;24.00;1.00;;;;;;6284315;28;20233;-54
2022/08/07 17:01:28;;;;;;;2.33;2.33;;;23.90;1.00;;;;;;6279320;28;20236;-55
2022/08/07 17:04:40;;;;;;;2.37;2.27;;;23.80;1.00;;;;;;6286423;28;20271;-55
2022/08/07 17:08:00;;;;;;;2.20;2.20;;;23.70;1.00;;;;;;6281187;28;20714;-54
2022/08/07 17:11:10;;;;;;;3.30;2.20;;;23.60;1.00;;;;;;6282330;28;20241;-54
2022/08/07 17:14:23;;;;;;;2.03;2.00;;;23.50;1.00;;;;;;6285501;28;20233;-54
2022/08/07 17:17:47;;;;;;;2.73;2.20;;;23.40;1.00;;;;;;6284575;28;20248;-55
2022/08/07 17:20:51;;;;;;;2.40;2.20;;;23.40;1.00;;;;;;6278068;28;20236;-53
2022/08/07 17:24:13;;;;;;;2.20;2.10;;;23.30;1.00;;;;;;6283421;28;20230;-53
2022/08/07 17:27:22;;;;;;;2.57;2.43;;;23.20;1.00;;;;;;6285504;28;20248;-55
2022/08/07 17:30:42;;;;;;;2.67;2.47;;;23.10;1.00;;;;;;6284541;28;20327;-55